createdAt,value
2023-05-21T00:00:26.094Z,389.00
2023-05-21T00:01:26.094Z,387.00
2023-05-21T00:02:26.142Z,386.00
2023-05-21T00:03:26.201Z,385.00
2023-05-21T00:04:26.128Z,386.00
2023-05-21T00:05:26.162Z,386.00
2023-05-21T00:06:26.217Z,384.00
2023-05-21T00:07:26.216Z,383.00
2023-05-21T00:08:26.237Z,382.00
2023-05-21T00:09:26.268Z,381.00
2023-05-21T00:10:26.297Z,380.00
2023-05-21T00:11:26.388Z,379.00
2023-05-21T00:12:26.353Z,376.00
2023-05-21T00:13:26.387Z,375.00
2023-05-21T00:14:26.400Z,377.00
2023-05-21T00:15:26.431Z,379.00
2023-05-21T00:16:26.567Z,381.00
2023-05-21T00:17:26.518Z,384.00
2023-05-21T00:18:26.511Z,383.00
2023-05-21T00:19:26.656Z,383.00
2023-05-21T00:20:26.569Z,381.00
2023-05-21T00:21:26.681Z,379.00
2023-05-21T00:22:26.630Z,377.00
2023-05-21T00:23:26.661Z,378.00
2023-05-21T00:24:26.674Z,377.00
2023-05-21T00:25:26.705Z,373.00
2023-05-21T00:26:26.734Z,372.00
2023-05-21T00:27:26.783Z,374.00
2023-05-21T00:28:26.790Z,378.00
2023-05-21T00:29:26.808Z,379.00
2023-05-21T00:30:26.840Z,377.00
2023-05-21T00:31:26.907Z,376.00
2023-05-21T00:32:26.914Z,377.00
2023-05-21T00:33:26.934Z,376.00
2023-05-21T00:34:26.961Z,375.00
2023-05-21T00:35:26.993Z,376.00
2023-05-21T00:36:27.024Z,378.00
2023-05-21T00:37:27.061Z,379.00
2023-05-21T00:38:27.096Z,377.00
2023-05-21T00:39:27.121Z,377.00
2023-05-21T00:40:27.164Z,376.00
2023-05-21T00:41:27.188Z,374.00
2023-05-21T00:42:27.226Z,375.00
2023-05-21T00:43:27.267Z,376.00
2023-05-21T00:44:27.277Z,377.00
2023-05-21T00:45:27.369Z,376.00
2023-05-21T00:46:27.360Z,374.00
2023-05-21T00:47:27.380Z,375.00
2023-05-21T00:48:27.378Z,375.00
2023-05-21T00:49:27.408Z,376.00
2023-05-21T00:50:27.467Z,376.00
2023-05-21T00:51:27.469Z,376.00
2023-05-21T00:52:27.494Z,375.00
2023-05-21T00:53:27.534Z,371.00
2023-05-21T00:54:27.546Z,373.00
2023-05-21T00:55:27.674Z,374.00
2023-05-21T00:56:27.622Z,375.00
2023-05-21T00:57:27.644Z,374.00
2023-05-21T00:58:27.675Z,373.00
2023-05-21T00:59:27.732Z,373.00
2023-05-21T01:00:27.754Z,374.00
2023-05-21T01:01:27.917Z,374.00
2023-05-21T01:02:27.850Z,375.00
2023-05-21T01:03:27.994Z,375.00
2023-05-21T01:04:27.860Z,378.00
2023-05-21T01:05:27.896Z,380.00
2023-05-21T01:06:27.967Z,379.00
2023-05-21T01:07:27.942Z,382.00
2023-05-21T01:08:27.964Z,380.00
2023-05-21T01:09:28.015Z,377.00
2023-05-21T01:10:28.056Z,374.00
2023-05-21T01:11:28.040Z,372.00
2023-05-21T01:12:28.069Z,371.00
2023-05-21T01:13:28.096Z,370.00
2023-05-21T01:14:28.125Z,370.00
2023-05-21T01:15:28.235Z,368.00
2023-05-21T01:16:28.188Z,370.00
2023-05-21T01:17:28.227Z,370.00
2023-05-21T01:18:28.295Z,371.00
2023-05-21T01:19:28.281Z,370.00
2023-05-21T01:20:28.271Z,368.00
2023-05-21T01:21:28.325Z,369.00
2023-05-21T01:22:28.323Z,369.00
2023-05-21T01:23:28.344Z,369.00
2023-05-21T01:24:28.370Z,368.00
2023-05-21T01:25:28.398Z,369.00
2023-05-21T01:26:28.426Z,371.00
2023-05-21T01:27:28.449Z,372.00
2023-05-21T01:28:28.488Z,373.00
2023-05-21T01:29:28.505Z,375.00
2023-05-21T01:30:28.539Z,375.00
2023-05-21T01:31:28.589Z,376.00
2023-05-21T01:32:28.597Z,373.00
2023-05-21T01:33:28.660Z,375.00
2023-05-21T01:34:28.650Z,375.00
2023-05-21T01:35:28.693Z,375.00
2023-05-21T01:36:28.726Z,376.00
2023-05-21T01:37:28.745Z,372.00
2023-05-21T01:38:28.777Z,372.00
2023-05-21T01:39:28.809Z,372.00
2023-05-21T01:40:28.831Z,374.00
2023-05-21T01:41:28.858Z,372.00
2023-05-21T01:42:28.887Z,371.00
2023-05-21T01:43:28.910Z,368.00
2023-05-21T01:44:28.951Z,368.00
2023-05-21T01:45:28.985Z,369.00
2023-05-21T01:46:29.047Z,372.00
2023-05-21T01:47:29.090Z,371.00
2023-05-21T01:48:29.075Z,368.00
2023-05-21T01:49:29.099Z,369.00
2023-05-21T01:50:29.132Z,371.00
2023-05-21T01:51:29.161Z,373.00
2023-05-21T01:52:29.261Z,372.00
2023-05-21T01:53:29.230Z,371.00
2023-05-21T01:54:29.269Z,370.00
2023-05-21T01:55:29.305Z,368.00
2023-05-21T01:56:29.342Z,366.00
2023-05-21T01:57:29.371Z,364.00
2023-05-21T01:58:29.399Z,367.00
2023-05-21T01:59:29.436Z,370.00
2023-05-21T02:00:29.508Z,373.00
2023-05-21T02:01:29.555Z,374.00
2023-05-21T02:02:29.622Z,378.00
2023-05-21T02:03:29.660Z,380.00
2023-05-21T02:04:29.583Z,379.00
2023-05-21T02:05:29.616Z,379.00
2023-05-21T02:06:29.639Z,378.00
2023-05-21T02:07:29.670Z,377.00
2023-05-21T02:08:29.702Z,378.00
2023-05-21T02:09:29.742Z,378.00
2023-05-21T02:10:29.769Z,377.00
2023-05-21T02:11:29.800Z,376.00
2023-05-21T02:12:29.873Z,378.00
2023-05-21T02:13:29.887Z,377.00
2023-05-21T02:14:29.902Z,379.00
2023-05-21T02:15:29.953Z,378.00
2023-05-21T02:16:30.092Z,378.00
2023-05-21T02:17:30.050Z,375.00
2023-05-21T02:18:30.041Z,377.00
2023-05-21T02:19:30.539Z,377.00
2023-05-21T02:20:30.114Z,376.00
2023-05-21T02:21:30.144Z,377.00
2023-05-21T02:22:30.181Z,376.00
2023-05-21T02:23:30.231Z,377.00
2023-05-21T02:24:30.253Z,375.00
2023-05-21T02:25:30.292Z,374.00
2023-05-21T02:26:30.341Z,374.00
2023-05-21T02:27:30.357Z,372.00
2023-05-21T02:28:30.399Z,371.00
2023-05-21T02:29:30.420Z,371.00
2023-05-21T02:30:30.455Z,369.00
2023-05-21T02:31:30.497Z,370.00
2023-05-21T02:32:30.626Z,375.00
2023-05-21T02:33:30.555Z,375.00
2023-05-21T02:34:30.653Z,374.00
2023-05-21T02:35:30.655Z,374.00
2023-05-21T02:36:30.660Z,375.00
2023-05-21T02:37:30.687Z,377.00
2023-05-21T02:38:30.731Z,375.00
2023-05-21T02:39:30.767Z,377.00
2023-05-21T02:40:30.800Z,377.00
2023-05-21T02:41:30.843Z,377.00
2023-05-21T02:42:30.873Z,374.00
2023-05-21T02:43:30.913Z,376.00
2023-05-21T02:44:30.948Z,378.00
2023-05-21T02:45:31.053Z,378.00
2023-05-21T02:46:31.059Z,376.00
2023-05-21T02:47:31.060Z,376.00
2023-05-21T02:48:31.113Z,377.00
2023-05-21T02:49:31.109Z,377.00
2023-05-21T02:50:31.133Z,380.00
2023-05-21T02:51:31.199Z,382.00
2023-05-21T02:52:31.198Z,382.00
2023-05-21T02:53:31.261Z,382.00
2023-05-21T02:54:31.292Z,381.00
2023-05-21T02:55:31.319Z,383.00
2023-05-21T02:56:31.327Z,384.00
2023-05-21T02:57:31.359Z,382.00
2023-05-21T02:58:31.393Z,383.00
2023-05-21T02:59:31.431Z,383.00
2023-05-21T03:00:31.459Z,383.00
2023-05-21T03:01:31.594Z,384.00
2023-05-21T03:02:31.576Z,381.00
2023-05-21T03:03:31.665Z,380.00
2023-05-21T03:04:31.598Z,381.00
2023-05-21T03:05:31.631Z,381.00
2023-05-21T03:06:31.667Z,381.00
2023-05-21T03:07:31.750Z,379.00
2023-05-21T03:08:31.732Z,381.00
2023-05-21T03:09:31.759Z,381.00
2023-05-21T03:10:31.789Z,379.00
2023-05-21T03:11:31.823Z,379.00
2023-05-21T03:12:31.860Z,378.00
2023-05-21T03:13:31.895Z,378.00
2023-05-21T03:14:31.962Z,379.00
2023-05-21T03:15:31.962Z,380.00
2023-05-21T03:16:32.004Z,378.00
2023-05-21T03:17:32.053Z,381.00
2023-05-21T03:18:32.060Z,381.00
2023-05-21T03:19:32.137Z,381.00
2023-05-21T03:20:32.128Z,381.00
2023-05-21T03:21:32.154Z,381.00
2023-05-21T03:22:32.191Z,383.00
2023-05-21T03:23:32.241Z,382.00
2023-05-21T03:24:32.245Z,382.00
2023-05-21T03:25:32.279Z,382.00
2023-05-21T03:26:32.327Z,384.00
2023-05-21T03:27:32.345Z,382.00
2023-05-21T03:28:32.387Z,381.00
2023-05-21T03:29:32.410Z,381.00
2023-05-21T03:30:32.448Z,382.00
2023-05-21T03:31:32.537Z,384.00
2023-05-21T03:32:32.528Z,383.00
2023-05-21T03:33:32.563Z,384.00
2023-05-21T03:34:32.598Z,383.00
2023-05-21T03:35:32.626Z,382.00
2023-05-21T03:36:32.659Z,381.00
2023-05-21T03:37:32.715Z,381.00
2023-05-21T03:38:32.852Z,381.00
2023-05-21T03:39:32.781Z,381.00
2023-05-21T03:40:32.791Z,379.00
2023-05-21T03:41:32.826Z,381.00
2023-05-21T03:42:32.868Z,383.00
2023-05-21T03:43:32.904Z,382.00
2023-05-21T03:44:32.984Z,383.00
2023-05-21T03:45:33.005Z,382.00
2023-05-21T03:46:33.122Z,382.00
2023-05-21T03:47:33.054Z,383.00
2023-05-21T03:48:33.072Z,385.00
2023-05-21T03:49:33.101Z,383.00
2023-05-21T03:50:33.137Z,384.00
2023-05-21T03:51:33.188Z,384.00
2023-05-21T03:52:33.219Z,384.00
2023-05-21T03:53:33.291Z,385.00
2023-05-21T03:54:33.294Z,385.00
2023-05-21T03:55:33.399Z,385.00
2023-05-21T03:56:33.367Z,386.00
2023-05-21T03:57:33.399Z,385.00
2023-05-21T03:58:33.429Z,385.00
2023-05-21T03:59:33.480Z,385.00
2023-05-21T04:00:33.506Z,383.00
2023-05-21T04:01:33.519Z,381.00
2023-05-21T04:02:33.674Z,382.00
2023-05-21T04:03:33.830Z,381.00
2023-05-21T04:04:33.653Z,383.00
2023-05-21T04:05:33.754Z,383.00
2023-05-21T04:06:33.700Z,383.00
2023-05-21T04:07:33.736Z,384.00
2023-05-21T04:08:33.778Z,384.00
2023-05-21T04:09:36.532Z,383.00
2023-05-21T04:10:33.802Z,381.00
2023-05-21T04:11:33.850Z,380.00
2023-05-21T04:12:33.790Z,381.00
2023-05-21T04:13:33.799Z,381.00
2023-05-21T04:14:33.782Z,381.00
2023-05-21T04:15:33.930Z,382.00
2023-05-21T04:16:33.851Z,384.00
2023-05-21T04:17:33.800Z,384.00
2023-05-21T04:18:33.768Z,382.00
2023-05-21T04:19:33.927Z,381.00
2023-05-21T04:20:33.758Z,382.00
2023-05-21T04:21:33.772Z,380.00
2023-05-21T04:22:33.752Z,380.00
2023-05-21T04:23:33.730Z,383.00
2023-05-21T04:24:33.739Z,385.00
2023-05-21T04:25:33.796Z,387.00
2023-05-21T04:26:33.723Z,387.00
2023-05-21T04:27:33.756Z,390.00
2023-05-21T04:28:33.693Z,388.00
2023-05-21T04:29:33.699Z,391.00
2023-05-21T04:30:33.701Z,391.00
2023-05-21T04:31:33.737Z,389.00
2023-05-21T04:32:33.701Z,386.00
2023-05-21T04:33:33.663Z,383.00
2023-05-21T04:34:33.669Z,378.00
2023-05-21T04:35:33.840Z,376.00
2023-05-21T04:36:33.677Z,375.00
2023-05-21T04:37:33.627Z,375.00
2023-05-21T04:38:33.631Z,375.00
2023-05-21T04:39:33.618Z,376.00
2023-05-21T04:40:33.618Z,378.00
2023-05-21T04:41:33.617Z,382.00
2023-05-21T04:42:33.604Z,383.00
2023-05-21T04:43:33.630Z,378.00
2023-05-21T04:44:33.599Z,380.00
2023-05-21T04:45:33.653Z,384.00
2023-05-21T04:46:33.599Z,384.00
2023-05-21T04:47:33.602Z,384.00
2023-05-21T04:48:33.556Z,385.00
2023-05-21T04:49:33.542Z,386.00
2023-05-21T04:50:33.518Z,390.00
2023-05-21T04:51:33.525Z,391.00
2023-05-21T04:52:33.497Z,392.00
2023-05-21T04:53:33.486Z,392.00
2023-05-21T04:54:33.492Z,392.00
2023-05-21T04:55:33.470Z,392.00
2023-05-21T04:56:33.464Z,388.00
2023-05-21T04:57:33.462Z,389.00
2023-05-21T04:58:33.431Z,390.00
2023-05-21T04:59:33.465Z,392.00
2023-05-21T05:00:33.458Z,392.00
2023-05-21T05:01:33.453Z,396.00
2023-05-21T05:02:33.439Z,394.00
2023-05-21T05:03:33.452Z,394.00
2023-05-21T05:04:33.378Z,391.00
2023-05-21T05:05:33.359Z,389.00
2023-05-21T05:06:33.346Z,389.00
2023-05-21T05:07:33.336Z,387.00
2023-05-21T05:08:33.367Z,385.00
2023-05-21T05:09:33.311Z,387.00
2023-05-21T05:10:33.308Z,387.00
2023-05-21T05:11:33.333Z,389.00
2023-05-21T05:12:33.369Z,390.00
2023-05-21T05:13:33.409Z,389.00
2023-05-21T05:14:33.458Z,385.00
2023-05-21T05:15:33.639Z,387.00
2023-05-21T05:16:33.567Z,390.00
2023-05-21T05:17:33.565Z,389.00
2023-05-21T05:18:33.580Z,388.00
2023-05-21T05:19:33.686Z,390.00
2023-05-21T05:20:33.650Z,396.00
2023-05-21T05:21:33.687Z,399.00
2023-05-21T05:22:33.718Z,398.00
2023-05-21T05:23:33.762Z,398.00
2023-05-21T05:24:33.795Z,399.00
2023-05-21T05:25:33.819Z,397.00
2023-05-21T05:26:33.857Z,395.00
2023-05-21T05:27:35.015Z,395.00
2023-05-21T05:28:33.883Z,392.00
2023-05-21T05:29:33.878Z,394.00
2023-05-21T05:30:33.908Z,391.00
2023-05-21T05:31:33.913Z,390.00
2023-05-21T05:32:33.892Z,387.00
2023-05-21T05:33:33.847Z,388.00
2023-05-21T05:34:33.827Z,387.00
2023-05-21T05:35:33.955Z,390.00
2023-05-21T05:36:33.833Z,387.00
2023-05-21T05:37:33.818Z,389.00
2023-05-21T05:38:33.794Z,388.00
2023-05-21T05:39:33.790Z,388.00
2023-05-21T05:40:33.781Z,386.00
2023-05-21T05:41:33.781Z,386.00
2023-05-21T05:42:33.768Z,387.00
2023-05-21T05:43:33.767Z,385.00
2023-05-21T05:44:33.758Z,385.00
2023-05-21T05:45:33.754Z,386.00
2023-05-21T05:46:33.815Z,389.00
2023-05-21T05:47:33.817Z,388.00
2023-05-21T05:48:33.729Z,389.00
2023-05-21T05:49:33.719Z,390.00
2023-05-21T05:50:33.710Z,388.00
2023-05-21T05:51:33.697Z,386.00
2023-05-21T05:52:33.692Z,385.00
2023-05-21T05:53:33.690Z,384.00
2023-05-21T05:54:33.674Z,385.00
2023-05-21T05:55:33.706Z,384.00
2023-05-21T05:56:33.661Z,380.00
2023-05-21T05:57:33.651Z,380.00
2023-05-21T05:58:33.648Z,380.00
2023-05-21T05:59:33.641Z,381.00
2023-05-21T06:00:33.627Z,385.00
2023-05-21T06:01:33.638Z,385.00
2023-05-21T06:02:33.723Z,385.00
2023-05-21T06:03:33.821Z,386.00
2023-05-21T06:04:33.594Z,386.00
2023-05-21T06:05:33.642Z,390.00
2023-05-21T06:06:33.582Z,387.00
2023-05-21T06:07:33.590Z,385.00
2023-05-21T06:08:34.491Z,386.00
2023-05-21T06:09:33.555Z,386.00
2023-05-21T06:10:33.549Z,386.00
2023-05-21T06:11:33.541Z,387.00
2023-05-21T06:12:33.528Z,386.00
2023-05-21T06:13:33.527Z,387.00
2023-05-21T06:14:33.521Z,385.00
2023-05-21T06:15:33.553Z,383.00
2023-05-21T06:16:33.583Z,382.00
2023-05-21T06:17:33.582Z,378.00
2023-05-21T06:18:33.502Z,386.00
2023-05-21T06:19:33.538Z,387.00
2023-05-21T06:20:33.469Z,390.00
2023-05-21T06:21:33.467Z,389.00
2023-05-21T06:22:33.461Z,387.00
2023-05-21T06:23:33.444Z,386.00
2023-05-21T06:24:33.442Z,384.00
2023-05-21T06:25:33.441Z,385.00
2023-05-21T06:26:33.422Z,383.00
2023-05-21T06:27:33.407Z,384.00
2023-05-21T06:28:33.407Z,385.00
2023-05-21T06:29:33.410Z,384.00
2023-05-21T06:30:33.393Z,385.00
2023-05-21T06:31:33.546Z,387.00
2023-05-21T06:32:33.466Z,391.00
2023-05-21T06:33:33.449Z,393.00
2023-05-21T06:34:33.368Z,394.00
2023-05-21T06:35:33.427Z,393.00
2023-05-21T06:36:33.356Z,389.00
2023-05-21T06:37:33.356Z,387.00
2023-05-21T06:38:33.353Z,389.00
2023-05-21T06:39:33.349Z,389.00
2023-05-21T06:40:33.345Z,390.00
2023-05-21T06:41:33.331Z,392.00
2023-05-21T06:42:33.316Z,391.00
2023-05-21T06:43:33.330Z,390.00
2023-05-21T06:44:33.316Z,389.00
2023-05-21T06:45:33.324Z,388.00
2023-05-21T06:46:33.348Z,387.00
2023-05-21T06:47:33.311Z,389.00
2023-05-21T06:48:33.296Z,392.00
2023-05-21T06:49:33.279Z,391.00
2023-05-21T06:50:33.271Z,388.00
2023-05-21T06:51:33.283Z,387.00
2023-05-21T06:52:33.251Z,386.00
2023-05-21T06:53:33.252Z,386.00
2023-05-21T06:54:33.235Z,389.00
2023-05-21T06:55:33.237Z,391.00
2023-05-21T06:56:33.221Z,392.00
2023-05-21T06:57:33.216Z,393.00
2023-05-21T06:58:33.227Z,392.00
2023-05-21T06:59:33.213Z,392.00
2023-05-21T07:00:33.242Z,393.00
2023-05-21T07:01:33.305Z,391.00
2023-05-21T07:02:33.437Z,392.00
2023-05-21T07:03:33.376Z,391.00
2023-05-21T07:04:33.350Z,388.00
2023-05-21T07:05:33.437Z,386.00
2023-05-21T07:06:33.414Z,385.00
2023-05-21T07:07:33.471Z,386.00
2023-05-21T07:08:33.476Z,386.00
2023-05-21T07:09:33.495Z,387.00
2023-05-21T07:10:33.525Z,388.00
2023-05-21T07:11:33.558Z,386.00
2023-05-21T07:12:33.611Z,386.00
2023-05-21T07:13:34.248Z,386.00
2023-05-21T07:14:33.653Z,386.00
2023-05-21T07:15:33.700Z,388.00
2023-05-21T07:16:33.751Z,388.00
2023-05-21T07:17:33.778Z,387.00
2023-05-21T07:18:33.753Z,388.00
2023-05-21T07:19:33.840Z,390.00
2023-05-21T07:20:33.808Z,392.00
2023-05-21T07:21:33.837Z,392.00
2023-05-21T07:22:33.863Z,396.00
2023-05-21T07:23:33.913Z,396.00
2023-05-21T07:24:33.926Z,395.00
2023-05-21T07:25:33.968Z,393.00
2023-05-21T07:26:33.986Z,391.00
2023-05-21T07:27:33.993Z,389.00
2023-05-21T07:28:34.012Z,388.00
2023-05-21T07:29:34.037Z,389.00
2023-05-21T07:30:34.083Z,386.00
2023-05-21T07:31:34.227Z,386.00
2023-05-21T07:32:34.131Z,385.00
2023-05-21T07:33:34.132Z,385.00
2023-05-21T07:34:34.152Z,386.00
2023-05-21T07:35:34.412Z,385.00
2023-05-21T07:36:34.205Z,384.00
2023-05-21T07:37:34.291Z,382.00
2023-05-21T07:38:34.247Z,381.00
2023-05-21T07:39:34.376Z,381.00
2023-05-21T07:40:34.274Z,384.00
2023-05-21T07:41:34.305Z,383.00
2023-05-21T07:42:34.306Z,383.00
2023-05-21T07:43:34.334Z,381.00
2023-05-21T07:44:34.356Z,383.00
2023-05-21T07:45:34.538Z,382.00
2023-05-21T07:46:34.432Z,384.00
2023-05-21T07:47:34.446Z,382.00
2023-05-21T07:48:35.558Z,381.00
2023-05-21T07:49:34.428Z,380.00
2023-05-21T07:50:34.446Z,382.00
2023-05-21T07:51:34.481Z,383.00
2023-05-21T07:52:34.520Z,383.00
2023-05-21T07:53:34.505Z,383.00
2023-05-21T07:54:34.500Z,382.00
2023-05-21T07:55:34.724Z,380.00
2023-05-21T07:56:34.517Z,382.00
2023-05-21T07:57:34.534Z,383.00
2023-05-21T07:58:34.539Z,382.00
2023-05-21T07:59:34.566Z,382.00
2023-05-21T08:00:34.566Z,382.00
2023-05-21T08:01:34.583Z,381.00
2023-05-21T08:02:34.740Z,382.00
2023-05-21T08:03:34.803Z,381.00
2023-05-21T08:04:34.639Z,382.00
2023-05-21T08:05:34.909Z,383.00
2023-05-21T08:06:34.631Z,382.00
2023-05-21T08:07:34.670Z,383.00
2023-05-21T08:08:34.653Z,383.00
2023-05-21T08:09:34.704Z,382.00
2023-05-21T08:10:34.677Z,380.00
2023-05-21T08:11:34.705Z,382.00
2023-05-21T08:12:34.687Z,385.00
2023-05-21T08:13:34.696Z,384.00
2023-05-21T08:14:34.717Z,385.00
2023-05-21T08:15:34.785Z,385.00
2023-05-21T08:16:34.756Z,387.00
2023-05-21T08:17:34.745Z,387.00
2023-05-21T08:18:34.729Z,388.00
2023-05-21T08:19:34.864Z,388.00
2023-05-21T08:20:34.741Z,388.00
2023-05-21T08:21:34.737Z,386.00
2023-05-21T08:22:34.752Z,386.00
2023-05-21T08:23:34.768Z,386.00
2023-05-21T08:24:34.772Z,387.00
2023-05-21T08:25:34.915Z,386.00
2023-05-21T08:26:34.776Z,386.00
2023-05-21T08:27:34.801Z,388.00
2023-05-21T08:28:34.781Z,387.00
2023-05-21T08:29:34.790Z,386.00
2023-05-21T08:30:34.783Z,388.00
2023-05-21T08:31:34.815Z,386.00
2023-05-21T08:32:34.840Z,384.00
2023-05-21T08:33:34.779Z,384.00
2023-05-21T08:34:34.767Z,383.00
2023-05-21T08:35:34.936Z,382.00
2023-05-21T08:36:34.765Z,381.00
2023-05-21T08:37:34.764Z,382.00
2023-05-21T08:38:34.755Z,385.00
2023-05-21T08:39:34.755Z,387.00
2023-05-21T08:40:34.763Z,386.00
2023-05-21T08:41:34.755Z,388.00
2023-05-21T08:42:37.416Z,385.00
2023-05-21T08:43:34.777Z,386.00
2023-05-21T08:44:34.739Z,388.00
2023-05-21T08:45:34.933Z,392.00
2023-05-21T08:46:34.721Z,389.00
2023-05-21T08:47:34.724Z,387.00
2023-05-21T08:48:34.687Z,386.00
2023-05-21T08:49:34.676Z,382.00
2023-05-21T08:50:34.667Z,382.00
2023-05-21T08:51:34.651Z,381.00
2023-05-21T08:52:34.631Z,383.00
2023-05-21T08:53:34.667Z,381.00
2023-05-21T08:54:34.605Z,383.00
2023-05-21T08:55:34.810Z,384.00
2023-05-21T08:56:34.576Z,386.00
2023-05-21T08:57:34.579Z,387.00
2023-05-21T08:58:34.551Z,388.00
2023-05-21T08:59:34.557Z,390.00
2023-05-21T09:00:34.580Z,388.00
2023-05-21T09:01:34.539Z,385.00
2023-05-21T09:02:34.552Z,385.00
2023-05-21T09:03:34.506Z,384.00
2023-05-21T09:04:34.534Z,385.00
2023-05-21T09:05:34.494Z,387.00
2023-05-21T09:06:34.439Z,384.00
2023-05-21T09:07:34.433Z,386.00
2023-05-21T09:08:34.405Z,387.00
2023-05-21T09:09:34.396Z,389.00
2023-05-21T09:10:34.369Z,390.00
2023-05-21T09:11:34.380Z,389.00
2023-05-21T09:12:34.341Z,389.00
2023-05-21T09:13:35.393Z,386.00
2023-05-21T09:14:34.312Z,388.00
2023-05-21T09:15:34.430Z,387.00
2023-05-21T09:16:34.312Z,386.00
2023-05-21T09:17:34.329Z,387.00
2023-05-21T09:18:34.248Z,389.00
2023-05-21T09:19:34.356Z,388.00
2023-05-21T09:20:34.224Z,386.00
2023-05-21T09:21:34.236Z,384.00
2023-05-21T09:22:34.181Z,386.00
2023-05-21T09:23:34.161Z,386.00
2023-05-21T09:24:36.224Z,385.00
2023-05-21T09:25:34.140Z,384.00
2023-05-21T09:26:34.137Z,386.00
2023-05-21T09:27:34.096Z,387.00
2023-05-21T09:28:34.079Z,386.00
2023-05-21T09:29:34.133Z,387.00
2023-05-21T09:30:35.983Z,388.00
2023-05-21T09:31:34.105Z,388.00
2023-05-21T09:32:34.035Z,387.00
2023-05-21T09:33:34.005Z,388.00
2023-05-21T09:34:33.989Z,387.00
2023-05-21T09:35:34.509Z,386.00
2023-05-21T09:36:33.964Z,388.00
2023-05-21T09:37:33.941Z,389.00
2023-05-21T09:38:33.923Z,393.00
2023-05-21T09:39:33.908Z,396.00
2023-05-21T09:40:33.930Z,393.00
2023-05-21T09:41:33.872Z,389.00
2023-05-21T09:42:33.859Z,389.00
2023-05-21T09:43:33.840Z,387.00
2023-05-21T09:44:33.830Z,384.00
2023-05-21T09:45:33.826Z,385.00
2023-05-21T09:46:33.864Z,385.00
2023-05-21T09:47:33.878Z,382.00
2023-05-21T09:48:33.767Z,384.00
2023-05-21T09:49:33.772Z,384.00
2023-05-21T09:50:33.828Z,385.00
2023-05-21T09:51:33.728Z,386.00
2023-05-21T09:52:33.714Z,385.00
2023-05-21T09:53:33.699Z,385.00
2023-05-21T09:54:33.682Z,385.00
2023-05-21T09:55:33.670Z,381.00
2023-05-21T09:56:33.685Z,382.00
2023-05-21T09:57:33.667Z,379.00
2023-05-21T09:58:33.698Z,380.00
2023-05-21T09:59:33.732Z,382.00
2023-05-21T10:00:33.745Z,384.00
2023-05-21T10:01:33.782Z,387.00
2023-05-21T10:02:33.737Z,388.00
2023-05-21T10:03:33.660Z,388.00
2023-05-21T10:04:33.711Z,387.00
2023-05-21T10:05:33.642Z,387.00
2023-05-21T10:06:33.665Z,387.00
2023-05-21T10:07:33.626Z,386.00
2023-05-21T10:08:33.625Z,384.00
2023-05-21T10:09:33.667Z,384.00
2023-05-21T10:10:33.701Z,385.00
2023-05-21T10:11:33.658Z,385.00
2023-05-21T10:12:33.655Z,387.00
2023-05-21T10:13:33.638Z,386.00
2023-05-21T10:14:33.661Z,385.00
2023-05-21T10:15:33.680Z,384.00
2023-05-21T10:16:33.816Z,384.00
2023-05-21T10:17:33.713Z,386.00
2023-05-21T10:18:33.714Z,389.00
2023-05-21T10:19:33.835Z,389.00
2023-05-21T10:20:33.759Z,390.00
2023-05-21T10:21:33.797Z,391.00
2023-05-21T10:22:33.816Z,389.00
2023-05-21T10:23:33.807Z,390.00
2023-05-21T10:24:33.836Z,388.00
2023-05-21T10:25:33.867Z,386.00
2023-05-21T10:26:33.903Z,388.00
2023-05-21T10:27:33.927Z,387.00
2023-05-21T10:28:33.933Z,388.00
2023-05-21T10:29:33.957Z,386.00
2023-05-21T10:30:34.079Z,386.00
2023-05-21T10:31:33.979Z,388.00
2023-05-21T10:32:34.106Z,388.00
2023-05-21T10:33:34.029Z,388.00
2023-05-21T10:34:34.010Z,388.00
2023-05-21T10:35:34.084Z,388.00
2023-05-21T10:36:34.051Z,388.00
2023-05-21T10:37:34.071Z,386.00
2023-05-21T10:38:34.095Z,385.00
2023-05-21T10:39:34.098Z,385.00
2023-05-21T10:40:34.241Z,388.00
2023-05-21T10:41:34.159Z,388.00
2023-05-21T10:42:34.157Z,387.00
2023-05-21T10:43:34.158Z,382.00
2023-05-21T10:44:34.175Z,380.00
2023-05-21T10:45:34.161Z,383.00
2023-05-21T10:46:34.163Z,383.00
2023-05-21T10:47:34.186Z,385.00
2023-05-21T10:48:34.147Z,387.00
2023-05-21T10:49:34.149Z,387.00
2023-05-21T10:50:34.233Z,385.00
2023-05-21T10:51:34.181Z,385.00
2023-05-21T10:52:34.153Z,387.00
2023-05-21T10:53:34.189Z,388.00
2023-05-21T10:54:34.229Z,387.00
2023-05-21T10:55:34.248Z,389.00
2023-05-21T10:56:34.296Z,389.00
2023-05-21T10:57:34.304Z,389.00
2023-05-21T10:58:34.302Z,391.00
2023-05-21T10:59:34.293Z,393.00
2023-05-21T11:00:34.456Z,389.00
2023-05-21T11:01:34.384Z,388.00
2023-05-21T11:02:34.506Z,387.00
2023-05-21T11:03:36.694Z,388.00
2023-05-21T11:04:34.346Z,387.00
2023-05-21T11:05:34.325Z,386.00
2023-05-21T11:06:34.311Z,387.00
2023-05-21T11:07:34.417Z,387.00
2023-05-21T11:08:34.279Z,384.00
2023-05-21T11:09:34.263Z,385.00
2023-05-21T11:10:34.589Z,386.00
2023-05-21T11:11:34.224Z,387.00
2023-05-21T11:12:34.209Z,387.00
2023-05-21T11:13:34.192Z,382.00
2023-05-21T11:14:34.176Z,383.00
2023-05-21T11:15:34.162Z,383.00
2023-05-21T11:16:34.221Z,382.00
2023-05-21T11:17:34.137Z,386.00
2023-05-21T11:18:34.139Z,387.00
2023-05-21T11:19:34.413Z,387.00
2023-05-21T11:20:34.336Z,387.00
2023-05-21T11:21:34.040Z,386.00
2023-05-21T11:22:34.019Z,386.00
2023-05-21T11:23:34.035Z,388.00
2023-05-21T11:24:33.985Z,387.00
2023-05-21T11:25:33.973Z,388.00
2023-05-21T11:26:33.979Z,390.00
2023-05-21T11:27:33.978Z,393.00
2023-05-21T11:28:33.990Z,393.00
2023-05-21T11:29:34.024Z,387.00
2023-05-21T11:30:35.874Z,385.00
2023-05-21T11:31:34.091Z,386.00
2023-05-21T11:32:34.036Z,385.00
2023-05-21T11:33:33.983Z,385.00
2023-05-21T11:34:33.965Z,382.00
2023-05-21T11:35:33.953Z,380.00
2023-05-21T11:36:36.102Z,380.00
2023-05-21T11:37:33.897Z,381.00
2023-05-21T11:38:33.888Z,381.00
2023-05-21T11:39:33.931Z,380.00
2023-05-21T11:40:33.891Z,378.00
2023-05-21T11:41:33.837Z,378.00
2023-05-21T11:42:33.817Z,379.00
2023-05-21T11:43:33.821Z,381.00
2023-05-21T11:44:33.810Z,382.00
2023-05-21T11:45:33.797Z,381.00
2023-05-21T11:46:33.783Z,381.00
2023-05-21T11:47:33.829Z,380.00
2023-05-21T11:48:33.745Z,379.00
2023-05-21T11:49:33.727Z,378.00
2023-05-21T11:50:33.911Z,379.00
2023-05-21T11:51:33.704Z,380.00
2023-05-21T11:52:33.681Z,382.00
2023-05-21T11:53:33.670Z,383.00
2023-05-21T11:54:33.649Z,381.00
2023-05-21T11:55:33.654Z,383.00
2023-05-21T11:56:33.619Z,384.00
2023-05-21T11:57:33.600Z,382.00
2023-05-21T11:58:33.594Z,379.00
2023-05-21T11:59:33.576Z,377.00
2023-05-21T12:00:33.640Z,377.00
2023-05-21T12:01:33.560Z,382.00
2023-05-21T12:02:33.724Z,384.00
2023-05-21T12:03:33.774Z,385.00
2023-05-21T12:04:33.709Z,383.00
2023-05-21T12:05:33.784Z,384.00
2023-05-21T12:06:33.785Z,384.00
2023-05-21T12:07:33.828Z,384.00
2023-05-21T12:08:33.881Z,385.00
2023-05-21T12:09:33.940Z,385.00
2023-05-21T12:10:34.068Z,386.00
2023-05-21T12:11:34.048Z,385.00
2023-05-21T12:12:46.000Z,383.00
2023-05-21T12:13:34.031Z,385.00
2023-05-21T12:14:34.006Z,385.00
2023-05-21T12:15:33.996Z,382.00
2023-05-21T12:16:34.013Z,382.00
2023-05-21T12:17:33.963Z,382.00
2023-05-21T12:18:33.930Z,382.00
2023-05-21T12:19:33.974Z,383.00
2023-05-21T12:20:33.893Z,385.00
2023-05-21T12:21:33.893Z,387.00
2023-05-21T12:22:33.874Z,387.00
2023-05-21T12:23:33.848Z,383.00
2023-05-21T12:24:33.833Z,384.00
2023-05-21T12:25:33.820Z,384.00
2023-05-21T12:26:33.808Z,385.00
2023-05-21T12:27:35.168Z,383.00
2023-05-21T12:28:33.764Z,382.00